Houari Boumediene Airport

DAAG · Argel, Argelia

METAR pasados DAAG · Aeropuerto Internacional Houari Boumedienne

A continuación puedes ver los METAR de los últimos días. Selecciona un año para ver los METAR más antiguos, desde el año 2007 en adelante.

27 de noviembre de 2022

Hora Código Tiempo Temp. Visibilidad Cielo nuboso Viento METAR/SPECI
13:30
V
18 °C 10 km+ - 010° 010° 3 kt METAR DAAG 271230Z 01003KT 290V090 9999 FEW026 18/08 Q1026
13:00
V
18 °C 10 km+ - Var Var 3 kt METAR DAAG 271200Z VRB03KT 9999 FEW026 18/08 Q1026
12:30
V
18 °C 10 km+ - 010° 010° 3 kt METAR DAAG 271130Z 01003KT 300V070 9999 FEW026 18/08 Q1027
12:00
V
18 °C 10 km+ - Var Var 2 kt METAR DAAG 271100Z VRB02KT 9999 FEW026 18/09 Q1027
11:30
V
17 °C 10 km+ - Var Var 3 kt METAR DAAG 271030Z VRB03KT 9999 FEW026 17/09 Q1028
11:00
V
16 °C 10 km+ - 230° 230° 3 kt METAR DAAG 271000Z 23003KT 170V300 9999 FEW023 16/10 Q1028
10:30
V
15 °C 10 km+ - Var Var 2 kt METAR DAAG 270930Z VRB02KT 9999 FEW023 15/09 Q1028
10:00
V
14 °C 10 km+ - Var Var 2 kt METAR DAAG 270900Z VRB02KT 9999 FEW023 14/10 Q1028
09:30
V
12 °C 10 km+ - Var Var 2 kt METAR DAAG 270830Z VRB02KT 9999 FEW023 12/09 Q1028
09:00
V
10 °C 10 km+ - 180° 180° 3 kt METAR DAAG 270800Z 18003KT 150V210 9999 FEW023 10/08 Q1028
08:30
V
8 °C 10 km+ - 200° 200° 3 kt METAR DAAG 270730Z 20003KT 9999 FEW023 08/07 Q1028
08:00
V
7 °C 10 km+ - 200° 200° 4 kt METAR DAAG 270700Z 20004KT 9999 FEW023 07/06 Q1028
07:30
V
7 °C 10 km+ - 180° 180° 4 kt METAR DAAG 270630Z 18004KT 9999 FEW023 07/06 Q1028
07:00
V
8 °C 10 km+ - 190° 190° 3 kt METAR DAAG 270600Z 19003KT 9999 FEW023 08/06 Q1028
06:30
V
10 °C 10 km+ - 180° 180° 4 kt METAR DAAG 270530Z 18004KT 9999 FEW023 10/08 Q1028
06:00
V
10 °C 10 km+ - 200° 200° 4 kt METAR DAAG 270500Z 20004KT 9999 FEW023 10/07 Q1028
05:30
V
10 °C 10 km+ - 220° 220° 7 kt METAR DAAG 270430Z 22007KT 9999 FEW023 10/08 Q1028
05:00
V
10 °C 10 km+ - 220° 220° 7 kt METAR DAAG 270400Z 22007KT 9999 FEW023 10/08 Q1028
04:30
V
10 °C 10 km+ - 230° 230° 6 kt METAR DAAG 270330Z 23006KT 9999 FEW023 10/08 Q1028
04:00
V
10 °C 10 km+ - 220° 220° 3 kt METAR DAAG 270300Z 22003KT 9999 FEW023 10/08 Q1028
03:30
V
11 °C 10 km+ - 210° 210° 4 kt METAR DAAG 270230Z 21004KT 9999 FEW023 11/08 Q1028
03:00
V
11 °C 10 km+ - 220° 220° 6 kt METAR DAAG 270200Z 22006KT 9999 FEW023 11/09 Q1028
02:30
V
11 °C 10 km+ - 220° 220° 6 kt METAR DAAG 270130Z 22006KT 9999 FEW023 11/09 Q1028
02:00
V
11 °C 10 km+ - 220° 220° 6 kt METAR DAAG 270100Z 22006KT 9999 FEW023 11/09 Q1029
01:30
V
12 °C 10 km+ - 210° 210° 5 kt METAR DAAG 270030Z 21005KT 9999 FEW023 12/09 Q1029
01:00
V
11 °C 10 km+ - 210° 210° 6 kt METAR DAAG 270000Z 21006KT 9999 FEW023 11/09 Q1029
00:30
V
12 °C 10 km+ - 210° 210° 5 kt METAR DAAG 262330Z 21005KT 9999 FEW023 12/09 Q1029
00:00
V
12 °C 10 km+ - 220° 220° 5 kt METAR DAAG 262300Z 22005KT 9999 FEW023 12/09 Q1029

26 de noviembre de 2022

Hora Código Tiempo Temp. Visibilidad Cielo nuboso Viento METAR/SPECI
23:30
V
11 °C 10 km+ - 220° 220° 4 kt METAR DAAG 262230Z 22004KT 9999 FEW023 11/09 Q1029
23:00
V
11 °C 10 km+ - 220° 220° 2 kt METAR DAAG 262200Z 22002KT 9999 FEW023 11/09 Q1029
22:30
V
10 °C 10 km+ - 210° 210° 3 kt METAR DAAG 262130Z 21003KT 9999 FEW023 10/09 Q1029
22:00
V
11 °C 10 km+ - 190° 190° 4 kt METAR DAAG 262100Z 19004KT 9999 FEW023 11/09 Q1029
21:30
V
12 °C 10 km+ - 190° 190° 4 kt METAR DAAG 262030Z 19004KT 9999 FEW023 12/10 Q1029
21:00
V
12 °C 10 km+ - Var 000° 0 kt METAR DAAG 262000Z 00000KT 9999 FEW023 12/09 Q1029
20:30
V
12 °C 10 km+ - Var 000° 0 kt METAR DAAG 261930Z 00000KT 9999 FEW023 12/10 Q1029
20:00
V
13 °C 10 km+ - Var 000° 0 kt METAR DAAG 261900Z 00000KT 9999 SCT023 13/09 Q1029
19:30
V
16 °C 10 km+ - 020° 020° 4 kt METAR DAAG 261830Z 02004KT 9999 SCT023 16/10 Q1028
19:00
V
17 °C 10 km+ - 010° 010° 3 kt METAR DAAG 261800Z 01003KT 310V040 9999 SCT023 17/10 Q1028
18:30
V
17 °C 10 km+ - Var Var 3 kt METAR DAAG 261730Z VRB03KT 9999 SCT023 17/10 Q1028
18:00
V
17 °C 10 km+ - 360° 360° 5 kt METAR DAAG 261700Z 36005KT 320V030 9999 SCT023 17/10 Q1028
17:30
V
17 °C 10 km+ - 350° 350° 7 kt METAR DAAG 261630Z 35007KT 310V020 9999 SCT023 17/11 Q1028
17:00
V
18 °C 10 km+ - 350° 350° 8 kt METAR DAAG 261600Z 35008KT 310V020 9999 SCT023 18/10 Q1028
16:30
V
18 °C 10 km+ - 340° 340° 11 kt METAR DAAG 261530Z 34011KT 9999 SCT023 18/10 Q1028
16:00
V
18 °C 10 km+ - 340° 340° 10 kt METAR DAAG 261500Z 34010KT 280V360 9999 SCT023 18/10 Q1028
15:30
V
18 °C 10 km+ - 330° 330° 9 kt METAR DAAG 261430Z 33009KT 9999 SCT023 18/10 Q1028
15:00
V
18 °C 10 km+ - 330° 330° 11 kt METAR DAAG 261400Z 33011KT 290V360 9999 SCT023 18/10 Q1028
14:30
M
18 °C 10 km+ 2.300 ft 340° 340° 10 kt METAR DAAG 261330Z 34010KT 310V010 9999 BKN023 18/10 Q1028
14:00
V
18 °C 10 km+ - 330° 330° 10 kt METAR DAAG 261300Z 33010KT 300V360 9999 SCT023 18/10 Q1028
13:30
V
19 °C 10 km+ - 330° 330° 9 kt METAR DAAG 261230Z 33009KT 290V360 9999 SCT023 19/10 Q1028
13:00
V
19 °C 10 km+ - 340° 340° 9 kt METAR DAAG 261200Z 34009KT 310V020 9999 SCT023 19/09 Q1029
12:30
V
18 °C 10 km+ - 330° 330° 10 kt METAR DAAG 261130Z 33010KT 290V010 9999 SCT023 18/09 Q1029
12:00
V
18 °C 10 km+ - 340° 340° 10 kt METAR DAAG 261100Z 34010KT 290V020 9999 SCT023 18/10 Q1029
11:30
V
18 °C 10 km+ - 320° 320° 9 kt METAR DAAG 261030Z 32009KT 280V350 9999 SCT023 18/10 Q1029
11:00
V
18 °C 10 km+ - 330° 330° 8 kt METAR DAAG 261000Z 33008KT 9999 SCT023 18/10 Q1029
10:30
V
17 °C 10 km+ - 330° 330° 8 kt METAR DAAG 260930Z 33008KT 9999 SCT023 17/11 Q1029
10:00
V
16 °C 10 km+ - 240° 240° 3 kt METAR DAAG 260900Z 24003KT 140V300 9999 SCT020 16/12 Q1029
09:30
V
15 °C 10 km+ - 210° 210° 4 kt METAR DAAG 260830Z 21004KT 9999 SCT020 SCT040 15/12 Q1029
09:00
V
14 °C 10 km+ - 210° 210° 4 kt METAR DAAG 260800Z 21004KT 9999 SCT026 14/12 Q1028
08:30
V
14 °C 10 km+ - 220° 220° 3 kt METAR DAAG 260730Z 22003KT 9999 SCT026 14/12 Q1028
08:00
V
12 °C 10 km+ - 200° 200° 4 kt METAR DAAG 260700Z 20004KT 9999 SCT026 12/11 Q1028
07:30
V
12 °C 10 km+ - 210° 210° 4 kt METAR DAAG 260630Z 21004KT 9999 SCT026 12/11 Q1028
07:00
V
13 °C 10 km+ - 210° 210° 4 kt METAR DAAG 260600Z 21004KT 9999 SCT026 13/12 Q1027
06:30
V
13 °C 10 km+ - 210° 210° 4 kt METAR DAAG 260530Z 21004KT 9999 SCT026 13/11 Q1027
06:00
V
12 °C 10 km+ - 210° 210° 4 kt METAR DAAG 260500Z 21004KT 9999 FEW023 12/10 Q1027
05:30
V
12 °C 10 km+ - 350° 350° 4 kt METAR DAAG 260430Z 35004KT 9999 FEW023 12/11 Q1027
05:00
V
13 °C 10 km+ - 350° 350° 4 kt METAR DAAG 260400Z 35004KT 9999 FEW023 13/11 Q1027
04:30
V
14 °C 10 km+ - 360° 360° 5 kt METAR DAAG 260330Z 36005KT 9999 FEW023 14/12 Q1027
04:00
V
14 °C 10 km+ - 350° 350° 3 kt METAR DAAG 260300Z 35003KT 320V060 9999 FEW023 14/11 Q1027
03:30
V
16 °C 10 km+ - 350° 350° 4 kt METAR DAAG 260230Z 35004KT 9999 FEW020 SCT040 16/12 Q1027
03:00
V
16 °C 10 km+ - 340° 340° 4 kt METAR DAAG 260200Z 34004KT 9999 FEW020 SCT040 16/11 Q1027
02:30
V
17 °C 10 km+ - 320° 320° 6 kt METAR DAAG 260130Z 32006KT 9999 FEW020 SCT040 17/11 Q1027
02:00
V
17 °C 10 km+ - 340° 340° 5 kt METAR DAAG 260100Z 34005KT 9999 FEW020 FEW026CB SCT040 17/12 Q1027
01:30
V
17 °C 10 km+ - 340° 340° 10 kt METAR DAAG 260030Z 34010KT 9999 FEW020 FEW026CB SCT040 17/12 Q1027
01:00
V
18 °C 10 km+ - 330° 330° 8 kt METAR DAAG 260000Z 33008KT 9999 FEW020 FEW026CB SCT040 18/13 Q1026
00:30
V
18 °C 10 km+ - 330° 330° 9 kt METAR DAAG 252330Z 33009KT 9999 FEW020 FEW026CB SCT040 18/12 Q1026
00:00
V
16 °C 10 km+ - 280° 280° 4 kt METAR DAAG 252300Z 28004KT 250V310 9999 FEW020 FEW026CB SCT040 16/14 Q1026

25 de noviembre de 2022

Hora Código Tiempo Temp. Visibilidad Cielo nuboso Viento METAR/SPECI
23:30
V
16 °C 10 km+ - 310° 310° 4 kt METAR DAAG 252230Z 31004KT 280V340 9999 FEW020 FEW026CB SCT040 16/14 Q1025
23:00
V
16 °C 10 km+ - 330° 330° 5 kt METAR DAAG 252200Z 33005KT 300V360 9999 FEW020 FEW026CB SCT040 16/14 Q1025
22:30
V
17 °C 10 km+ - 290° 290° 6 kt METAR DAAG 252130Z 29006KT 9999 -RA FEW020 FEW026CB SCT046 17/15 Q1025
22:00
V
18 °C 10 km+ - 250° 250° 10 kt METAR DAAG 252100Z 25010KT 9999 FEW023 FEW026CB SCT046 18/15 Q1024
21:30
V
18 °C 10 km+ - 260° 260° 11 kt METAR DAAG 252030Z 26011KT 9999 FEW023 FEW026CB SCT046 18/15 Q1024
21:00
V
18 °C 10 km+ - 260° 260° 11 kt METAR DAAG 252000Z 26011KT 9999 FEW023 FEW026CB SCT046 18/15 Q1024
20:30
V
18 °C 10 km+ - 260° 260° 11 kt METAR DAAG 251930Z 26011KT 9999 FEW023 FEW026CB SCT046 18/15 Q1024
20:00
V
18 °C 10 km+ - 270° 270° 9 kt METAR DAAG 251900Z 27009KT 9999 FEW023 FEW026CB SCT046 18/15 Q1024
19:30
V
18 °C 10 km+ - 280° 280° 12 kt METAR DAAG 251830Z 28012KT 9999 FEW023 FEW026CB SCT046 18/15 Q1023
19:00
V
18 °C 10 km+ - 260° 260° 9 kt METAR DAAG 251800Z 26009KT 9999 FEW026 FEW030CB SCT046 18/15 Q1023
18:30
V
18 °C 10 km+ - 260° 260° 9 kt METAR DAAG 251730Z 26009KT 230V290 9999 FEW026 FEW030CB SCT046 18/15 Q1023
18:00
V
19 °C 10 km+ - 250° 250° 10 kt METAR DAAG 251700Z 25010KT 9999 FEW026 FEW030CB SCT046 19/14 Q1023
17:30
V
19 °C 10 km+ - 250° 250° 12 kt METAR DAAG 251630Z 25012KT 9999 SCT026 SCT086 19/14 Q1023
17:00
V
19 °C 10 km+ - 270° 270° 11 kt METAR DAAG 251600Z 27011KT 240V300 9999 SCT026 SCT086 19/14 Q1022
16:30
V
20 °C 10 km+ - 280° 280° 11 kt METAR DAAG 251530Z 28011KT 9999 SCT026 SCT086 20/14 Q1022
16:00
V
20 °C 10 km+ - 300° 300° 15 kt METAR DAAG 251500Z 30015KT 9999 SCT026 SCT086 20/14 Q1022
15:30
V
21 °C 10 km+ - 300° 300° 13 kt METAR DAAG 251430Z 30013KT 9999 FEW026 SCT200 21/14 Q1021
15:00
V
21 °C 10 km+ - 320° 320° 9 kt METAR DAAG 251400Z 32009KT 280V350 9999 FEW026 SCT200 21/13 Q1021
14:30
V
21 °C 10 km+ - 320° 320° 7 kt METAR DAAG 251330Z 32007KT 300V360 9999 FEW026 SCT200 21/14 Q1021
14:00
V
21 °C 10 km+ - 340° 340° 7 kt METAR DAAG 251300Z 34007KT 310V010 9999 FEW026 SCT200 21/13 Q1021
13:30
V
20 °C 10 km+ - 270° 270° 6 kt METAR DAAG 251230Z 27006KT 220V300 9999 FEW026 SCT200 20/13 Q1022
13:00
V
21 °C 10 km+ - 230° 230° 4 kt METAR DAAG 251200Z 23004KT 190V290 9999 FEW026 SCT200 21/13 Q1021
12:30
V
19 °C 10 km+ - 240° 240° 7 kt METAR DAAG 251130Z 24007KT 220V280 9999 FEW026 SCT100 19/13 Q1022
12:00
V
19 °C 10 km+ - 220° 220° 4 kt METAR DAAG 251100Z 22004KT 190V250 9999 FEW026 SCT100 19/13 Q1023
11:30
V
18 °C 10 km+ - 210° 210° 5 kt METAR DAAG 251030Z 21005KT 170V250 9999 FEW026 SCT100 18/13 Q1023
11:00
V
17 °C 10 km+ - 220° 220° 4 kt METAR DAAG 251000Z 22004KT 190V250 9999 FEW026 SCT100 17/13 Q1023

Nosotros y terceros seguimos tu comportamiento en Internet en nuestro sitio web con cookies. Si continúas, asumimos que estás de acuerdo con nuestra Política de cookies.